createdAt,value
2023-04-07T00:00:21.863Z,5.2801
2023-04-07T00:01:30.135Z,5.8490
2023-04-07T00:02:38.256Z,5.6440
2023-04-07T00:03:46.398Z,4.6435
2023-04-07T00:04:54.301Z,5.0493
2023-04-07T00:06:02.210Z,4.9216
2023-04-07T00:07:10.533Z,4.9509
2023-04-07T00:08:18.340Z,5.1785
2023-04-07T00:09:26.794Z,6.1261
2023-04-07T00:10:34.646Z,5.9941
2023-04-07T00:11:42.727Z,5.2350
2023-04-07T00:12:50.966Z,5.1295
2023-04-07T00:13:58.908Z,5.2676
2023-04-07T00:15:06.797Z,5.2659
2023-04-07T00:16:15.051Z,5.4587
2023-04-07T00:17:23.100Z,5.0713
2023-04-07T00:18:31.143Z,4.8698
2023-04-07T00:19:39.286Z,5.1824
2023-04-07T00:20:47.309Z,5.3562
2023-04-07T00:21:55.461Z,5.1973
2023-04-07T00:23:03.284Z,5.4424
2023-04-07T00:24:12.977Z,5.1783
2023-04-07T00:25:24.466Z,5.4240
2023-04-07T00:26:32.494Z,5.3418
2023-04-07T00:27:40.543Z,5.0710
2023-04-07T00:28:48.696Z,4.9841
2023-04-07T00:29:56.826Z,4.5755
2023-04-07T00:31:04.986Z,4.3741
2023-04-07T00:32:12.991Z,4.0964
2023-04-07T00:33:20.924Z,4.0197
2023-04-07T00:34:29.016Z,3.9444
2023-04-07T00:35:37.004Z,3.7610
2023-04-07T00:36:45.227Z,4.1396
2023-04-07T00:37:53.238Z,4.2174
2023-04-07T00:39:01.302Z,4.5400
2023-04-07T00:40:09.499Z,4.6631
2023-04-07T00:41:17.333Z,4.7929
2023-04-07T00:42:25.522Z,4.8832
2023-04-07T00:43:33.452Z,4.6203
2023-04-07T00:44:41.683Z,5.0114
2023-04-07T00:45:49.728Z,4.9557
2023-04-07T00:46:57.708Z,4.8253
2023-04-07T00:48:05.987Z,4.8308
2023-04-07T00:49:14.002Z,4.4750
2023-04-07T00:50:22.174Z,4.6668
2023-04-07T00:51:30.056Z,4.7899
2023-04-07T00:52:38.060Z,4.7262
2023-04-07T00:53:46.416Z,4.8568
2023-04-07T00:54:54.326Z,5.2235
2023-04-07T00:56:02.420Z,5.6133
2023-04-07T00:57:10.494Z,6.2336
2023-04-07T00:58:18.435Z,6.6750
2023-04-07T00:59:26.653Z,6.4020
2023-04-07T01:00:34.688Z,6.0645
2023-04-07T01:01:42.963Z,6.0694
2023-04-07T01:02:51.054Z,6.8631
2023-04-07T01:03:59.492Z,6.7632
2023-04-07T01:05:07.212Z,6.7034
2023-04-07T01:06:15.309Z,6.3524
2023-04-07T01:07:23.125Z,6.6236
2023-04-07T01:08:31.327Z,6.8291
2023-04-07T01:09:39.342Z,6.9383
2023-04-07T01:10:47.312Z,6.5229
2023-04-07T01:11:55.439Z,7.0021
2023-04-07T01:13:03.492Z,6.5126
2023-04-07T01:14:11.701Z,6.5092
2023-04-07T01:15:19.706Z,6.5513
2023-04-07T01:16:27.876Z,6.7190
2023-04-07T01:17:35.781Z,6.8590
2023-04-07T01:18:43.915Z,6.4728
2023-04-07T01:19:51.939Z,6.4069
2023-04-07T01:21:00.099Z,6.8343
2023-04-07T01:22:08.125Z,6.6728
2023-04-07T01:23:16.124Z,7.0640
2023-04-07T01:24:24.222Z,6.7742
2023-04-07T01:25:32.301Z,6.6085
2023-04-07T01:26:40.417Z,6.6548
2023-04-07T01:27:48.442Z,6.7906
2023-04-07T01:28:56.559Z,6.8816
2023-04-07T01:30:04.474Z,6.1090
2023-04-07T01:31:12.929Z,6.8388
2023-04-07T01:32:20.901Z,6.2533
2023-04-07T01:33:28.816Z,6.5092
2023-04-07T01:34:36.909Z,6.5604
2023-04-07T01:35:45.025Z,6.6007
2023-04-07T01:36:53.059Z,6.3232
2023-04-07T01:38:01.197Z,6.2619
2023-04-07T01:39:09.211Z,6.4205
2023-04-07T01:40:17.129Z,5.9101
2023-04-07T01:41:25.334Z,6.2360
2023-04-07T01:42:33.402Z,6.2191
2023-04-07T01:43:41.783Z,5.9821
2023-04-07T01:44:49.558Z,6.0134
2023-04-07T01:45:57.718Z,6.2670
2023-04-07T01:47:05.816Z,6.3537
2023-04-07T01:48:13.903Z,6.3617
2023-04-07T01:49:21.915Z,6.5604
2023-04-07T01:50:29.913Z,5.9280
2023-04-07T01:51:38.152Z,6.0699
2023-04-07T01:52:46.051Z,6.2904
2023-04-07T01:53:54.307Z,6.2910
2023-04-07T01:55:02.260Z,5.9587
2023-04-07T01:56:10.310Z,6.3011
2023-04-07T01:57:18.358Z,6.2516
2023-04-07T01:58:26.330Z,6.2979
2023-04-07T01:59:34.518Z,5.8272
2023-04-07T02:00:42.879Z,6.2631
2023-04-07T02:01:50.880Z,6.2704
2023-04-07T02:02:58.799Z,6.3549
2023-04-07T02:04:06.721Z,6.4627
2023-04-07T02:05:14.873Z,6.2489
2023-04-07T02:06:23.009Z,6.1905
2023-04-07T02:07:31.051Z,6.3070
2023-04-07T02:08:39.130Z,6.5470
2023-04-07T02:09:47.351Z,6.2332
2023-04-07T02:10:55.215Z,6.3146
2023-04-07T02:12:03.372Z,5.9814
2023-04-07T02:13:11.458Z,6.1856
2023-04-07T02:14:19.409Z,6.1450
2023-04-07T02:15:27.577Z,5.9735
2023-04-07T02:16:35.601Z,6.2220
2023-04-07T02:17:43.884Z,6.1643
2023-04-07T02:18:51.813Z,6.3539
2023-04-07T02:19:59.795Z,6.0379
2023-04-07T02:21:07.974Z,6.0734
2023-04-07T02:22:15.934Z,6.0542
2023-04-07T02:23:24.075Z,5.8381
2023-04-07T02:24:32.162Z,6.2098
2023-04-07T02:25:40.297Z,6.2348
2023-04-07T02:26:48.103Z,5.6435
2023-04-07T02:27:56.305Z,5.9634
2023-04-07T02:29:04.437Z,6.4989
2023-04-07T02:30:12.493Z,6.3468
2023-04-07T02:31:20.522Z,6.1688
2023-04-07T02:32:28.827Z,6.1622
2023-04-07T02:33:36.640Z,5.7932
2023-04-07T02:34:44.759Z,6.4649
2023-04-07T02:35:52.918Z,6.2689
2023-04-07T02:37:00.962Z,5.9850
2023-04-07T02:38:08.928Z,6.4223
2023-04-07T02:39:16.968Z,6.3838
2023-04-07T02:40:24.942Z,6.0463
2023-04-07T02:41:33.126Z,6.2405
2023-04-07T02:42:41.151Z,6.3140
2023-04-07T02:43:49.234Z,6.4543
2023-04-07T02:44:57.390Z,6.0418
2023-04-07T02:46:05.600Z,5.9050
2023-04-07T02:47:13.446Z,5.7231
2023-04-07T02:48:21.515Z,6.3181
2023-04-07T02:49:29.580Z,6.3509
2023-04-07T02:50:37.653Z,6.2896
2023-04-07T02:51:45.795Z,6.0230
2023-04-07T02:52:53.812Z,5.8401
2023-04-07T02:54:01.883Z,6.0547
2023-04-07T02:55:09.951Z,6.2126
2023-04-07T02:56:18.111Z,6.5954
2023-04-07T02:57:26.268Z,6.1850
2023-04-07T02:58:33.995Z,6.0358
2023-04-07T02:59:42.185Z,6.3118
2023-04-07T03:00:50.897Z,6.5668
2023-04-07T03:01:58.532Z,6.5669
2023-04-07T03:03:06.700Z,6.4153
2023-04-07T03:04:14.606Z,6.5898
2023-04-07T03:05:22.683Z,6.9065
2023-04-07T03:06:30.595Z,6.6258
2023-04-07T03:07:38.660Z,6.7120
2023-04-07T03:08:46.915Z,6.8209
2023-04-07T03:09:54.824Z,6.6762
2023-04-07T03:11:02.882Z,6.5972
2023-04-07T03:12:10.873Z,6.5022
2023-04-07T03:13:19.131Z,6.9105
2023-04-07T03:14:27.272Z,6.8221
2023-04-07T03:15:35.189Z,6.6192
2023-04-07T03:16:43.332Z,7.0500
2023-04-07T03:17:51.484Z,6.6964
2023-04-07T03:18:59.389Z,6.5826
2023-04-07T03:20:07.505Z,6.6866
2023-04-07T03:21:15.472Z,6.5026
2023-04-07T03:22:23.591Z,6.1469
2023-04-07T03:23:31.597Z,6.7802
2023-04-07T03:24:39.795Z,6.8880
2023-04-07T03:25:48.756Z,7.0523
2023-04-07T03:26:55.951Z,6.6721
2023-04-07T03:28:03.947Z,6.6224
2023-04-07T03:29:11.918Z,6.7060
2023-04-07T03:30:20.103Z,6.8667
2023-04-07T03:31:28.255Z,6.7216
2023-04-07T03:32:36.315Z,6.7282
2023-04-07T03:33:44.410Z,6.9707
2023-04-07T03:34:52.576Z,7.2364
2023-04-07T03:36:00.591Z,7.1103
2023-04-07T03:37:08.557Z,6.9854
2023-04-07T03:38:16.743Z,6.7769
2023-04-07T03:39:24.833Z,6.8298
2023-04-07T03:40:32.893Z,6.8812
2023-04-07T03:41:40.807Z,6.6505
2023-04-07T03:42:49.047Z,6.9676
2023-04-07T03:43:57.245Z,6.5544
2023-04-07T03:45:05.158Z,6.6562
2023-04-07T03:46:13.340Z,6.7352
2023-04-07T03:47:21.379Z,6.6467
2023-04-07T03:48:29.455Z,6.3803
2023-04-07T03:49:37.465Z,6.8426
2023-04-07T03:50:45.501Z,6.8800
2023-04-07T03:51:53.647Z,6.5057
2023-04-07T03:53:01.681Z,6.0543
2023-04-07T03:54:09.815Z,6.6339
2023-04-07T03:55:17.722Z,6.8956
2023-04-07T03:56:27.920Z,6.9548
2023-04-07T03:57:38.893Z,7.0829
2023-04-07T03:58:46.936Z,6.7850
2023-04-07T03:59:55.066Z,6.7718
2023-04-07T04:01:02.985Z,6.4480
2023-04-07T04:02:11.334Z,6.5013
2023-04-07T04:03:19.445Z,7.0048
2023-04-07T04:04:27.272Z,6.5851
2023-04-07T04:05:35.435Z,6.6507
2023-04-07T04:06:43.313Z,6.7589
2023-04-07T04:07:51.454Z,6.4224
2023-04-07T04:08:59.537Z,6.6003
2023-04-07T04:10:07.632Z,6.2119
2023-04-07T04:11:15.699Z,6.6474
2023-04-07T04:12:23.900Z,6.8855
2023-04-07T04:13:31.864Z,7.2562
2023-04-07T04:14:39.963Z,6.8762
2023-04-07T04:15:48.047Z,6.7581
2023-04-07T04:16:56.100Z,6.4144
2023-04-07T04:18:04.196Z,6.4562
2023-04-07T04:19:12.210Z,6.1695
2023-04-07T04:20:20.316Z,6.5502
2023-04-07T04:21:28.326Z,6.6176
2023-04-07T04:22:36.558Z,6.7556
2023-04-07T04:23:44.496Z,6.6494
2023-04-07T04:24:52.622Z,6.8380
2023-04-07T04:26:00.711Z,6.8485
2023-04-07T04:27:08.767Z,7.0471
2023-04-07T04:28:16.748Z,6.5657
2023-04-07T04:29:24.846Z,6.8722
2023-04-07T04:30:32.865Z,6.4163
2023-04-07T04:31:41.037Z,6.5666
2023-04-07T04:32:49.110Z,6.3173
2023-04-07T04:33:57.177Z,6.6419
2023-04-07T04:35:05.354Z,6.6428
2023-04-07T04:36:13.272Z,6.5940
2023-04-07T04:37:21.378Z,5.8179
2023-04-07T04:38:29.479Z,6.2583
2023-04-07T04:39:37.490Z,6.7063
2023-04-07T04:40:45.717Z,6.3436
2023-04-07T04:41:53.681Z,6.3734
2023-04-07T04:43:01.829Z,6.2741
2023-04-07T04:44:10.045Z,6.4637
2023-04-07T04:45:17.949Z,6.3436
2023-04-07T04:46:26.012Z,6.8360
2023-04-07T04:47:34.168Z,6.8689
2023-04-07T04:48:42.123Z,7.1280
2023-04-07T04:49:50.108Z,6.6302
2023-04-07T04:50:58.324Z,6.7062
2023-04-07T04:52:06.434Z,6.3993
2023-04-07T04:53:14.412Z,6.7635
2023-04-07T04:54:22.497Z,6.4220
2023-04-07T04:55:30.644Z,6.5490
2023-04-07T04:56:38.684Z,6.4339
2023-04-07T04:57:46.704Z,6.4134
2023-04-07T04:58:54.784Z,6.7040
2023-04-07T05:00:02.790Z,6.8881
2023-04-07T05:01:10.927Z,6.9918
2023-04-07T05:02:19.237Z,7.4849
2023-04-07T05:03:27.413Z,7.1785
2023-04-07T05:04:35.312Z,6.9601
2023-04-07T05:05:43.226Z,6.9479
2023-04-07T05:06:51.275Z,7.3132
2023-04-07T05:07:59.494Z,7.0400
2023-04-07T05:09:07.426Z,7.0044
2023-04-07T05:10:15.458Z,7.0949
2023-04-07T05:11:23.607Z,7.2252
2023-04-07T05:12:31.715Z,7.2134
2023-04-07T05:13:39.778Z,6.7559
2023-04-07T05:14:47.784Z,7.0773
2023-04-07T05:15:55.903Z,6.7762
2023-04-07T05:17:04.034Z,7.1251
2023-04-07T05:18:11.998Z,7.3380
2023-04-07T05:19:20.106Z,7.3748
2023-04-07T05:20:28.186Z,7.0362
2023-04-07T05:21:36.215Z,7.1372
2023-04-07T05:22:44.205Z,7.2349
2023-04-07T05:23:52.661Z,7.2416
2023-04-07T05:25:00.547Z,7.0816
2023-04-07T05:26:08.527Z,7.3837
2023-04-07T05:27:16.603Z,7.2148
2023-04-07T05:28:24.649Z,7.2556
2023-04-07T05:29:32.838Z,7.0964
2023-04-07T05:30:40.825Z,7.0871
2023-04-07T05:31:48.900Z,7.4581
2023-04-07T05:32:57.045Z,7.1795
2023-04-07T05:34:05.112Z,7.1988
2023-04-07T05:35:13.067Z,6.8892
2023-04-07T05:36:21.200Z,7.2552
2023-04-07T05:37:29.349Z,7.1965
2023-04-07T05:38:37.288Z,7.2251
2023-04-07T05:39:45.356Z,7.1230
2023-04-07T05:40:53.510Z,7.0315
2023-04-07T05:42:01.537Z,7.1134
2023-04-07T05:43:09.671Z,7.5220
2023-04-07T05:44:17.655Z,7.0071
2023-04-07T05:45:25.860Z,6.9145
2023-04-07T05:46:33.771Z,6.9969
2023-04-07T05:47:41.927Z,6.8373
2023-04-07T05:48:49.909Z,6.7623
2023-04-07T05:49:57.997Z,7.1741
2023-04-07T05:51:06.181Z,6.9548
2023-04-07T05:52:14.112Z,6.7006
2023-04-07T05:53:22.299Z,6.6866
2023-04-07T05:54:30.224Z,6.7459
2023-04-07T05:55:38.340Z,6.9315
2023-04-07T05:56:46.369Z,6.8280
2023-04-07T05:57:54.590Z,6.8577
2023-04-07T05:59:02.610Z,6.9814
2023-04-07T06:00:10.576Z,7.2855
2023-04-07T06:01:18.876Z,7.1564
2023-04-07T06:02:26.881Z,7.3208
2023-04-07T06:03:34.921Z,6.6435
2023-04-07T06:04:42.910Z,6.8740
2023-04-07T06:05:51.080Z,7.0966
2023-04-07T06:06:59.051Z,7.3366
2023-04-07T06:08:07.130Z,6.7793
2023-04-07T06:09:15.201Z,7.1305
2023-04-07T06:10:23.247Z,6.7863
2023-04-07T06:11:31.446Z,7.2496
2023-04-07T06:12:39.458Z,7.0141
2023-04-07T06:13:47.874Z,7.0197
2023-04-07T06:14:55.557Z,7.2885
2023-04-07T06:16:03.686Z,7.0588
2023-04-07T06:17:11.761Z,7.5611
2023-04-07T06:18:19.903Z,7.3528
2023-04-07T06:19:27.844Z,6.9054
2023-04-07T06:20:36.047Z,7.3204
2023-04-07T06:21:44.033Z,6.7880
2023-04-07T06:22:52.088Z,6.9036
2023-04-07T06:24:00.169Z,7.1203
2023-04-07T06:25:08.211Z,6.9949
2023-04-07T06:26:16.405Z,7.2662
2023-04-07T06:27:24.405Z,7.0643
2023-04-07T06:28:32.420Z,6.7426
2023-04-07T06:29:40.620Z,7.0393
2023-04-07T06:30:48.704Z,6.9786
2023-04-07T06:31:56.688Z,7.1706
2023-04-07T06:33:04.775Z,7.2527
2023-04-07T06:34:12.794Z,7.4185
2023-04-07T06:35:20.847Z,7.1220
2023-04-07T06:36:28.969Z,6.8864
2023-04-07T06:37:37.027Z,6.7737
2023-04-07T06:38:45.249Z,7.3013
2023-04-07T06:39:53.157Z,6.9827
2023-04-07T06:41:01.215Z,7.2359
2023-04-07T06:42:09.224Z,7.1972
2023-04-07T06:43:17.361Z,7.1507
2023-04-07T06:44:25.461Z,7.8279
2023-04-07T06:45:33.505Z,7.2727
2023-04-07T06:46:41.854Z,7.2168
2023-04-07T06:47:49.759Z,7.1184
2023-04-07T06:48:57.727Z,7.3669
2023-04-07T06:50:05.897Z,7.2965
2023-04-07T06:51:13.989Z,7.0056
2023-04-07T06:52:21.915Z,6.9526
2023-04-07T06:53:30.007Z,7.0134
2023-04-07T06:54:38.089Z,7.0251
2023-04-07T06:55:46.189Z,7.3442
2023-04-07T06:56:54.718Z,6.9302
2023-04-07T06:58:02.271Z,7.3030
2023-04-07T06:59:10.423Z,7.1211
2023-04-07T07:00:18.356Z,6.8742
2023-04-07T07:01:26.623Z,7.2300
2023-04-07T07:02:34.730Z,6.7849
2023-04-07T07:03:42.708Z,7.3325
2023-04-07T07:04:50.682Z,7.3219
2023-04-07T07:05:58.671Z,6.8786
2023-04-07T07:07:07.004Z,7.1303
2023-04-07T07:08:14.907Z,7.0033
2023-04-07T07:09:22.979Z,7.2747
2023-04-07T07:10:31.121Z,7.0684
2023-04-07T07:11:39.100Z,7.0891
2023-04-07T07:12:47.212Z,7.4648
2023-04-07T07:13:55.242Z,7.3951
2023-04-07T07:15:03.414Z,7.5498
2023-04-07T07:16:11.618Z,7.6388
2023-04-07T07:17:19.445Z,7.7543
2023-04-07T07:18:28.507Z,7.8419
2023-04-07T07:19:35.597Z,7.8124
2023-04-07T07:20:43.670Z,7.9518
2023-04-07T07:21:51.761Z,7.7053
2023-04-07T07:22:59.872Z,7.5903
2023-04-07T07:24:07.909Z,7.3831
2023-04-07T07:25:15.931Z,7.9544
2023-04-07T07:26:24.000Z,7.8661
2023-04-07T07:27:32.123Z,7.4671
2023-04-07T07:28:40.077Z,7.9209
2023-04-07T07:29:48.270Z,7.8914
2023-04-07T07:30:56.389Z,7.7783
2023-04-07T07:32:04.402Z,7.9269
2023-04-07T07:33:12.533Z,8.0295
2023-04-07T07:34:20.474Z,7.7115
2023-04-07T07:35:28.526Z,7.6461
2023-04-07T07:36:36.639Z,7.7762
2023-04-07T07:37:44.625Z,7.8310
2023-04-07T07:38:52.899Z,8.3329
2023-04-07T07:40:00.837Z,7.7959
2023-04-07T07:41:08.849Z,7.8370
2023-04-07T07:42:17.148Z,7.9725
2023-04-07T07:43:25.146Z,7.9093
2023-04-07T07:44:33.112Z,8.0368
2023-04-07T07:45:41.170Z,8.0435
2023-04-07T07:46:49.469Z,8.1319
2023-04-07T07:47:57.518Z,8.0632
2023-04-07T07:49:05.500Z,7.9385
2023-04-07T07:50:13.524Z,8.8980
2023-04-07T07:51:21.619Z,8.3426
2023-04-07T07:52:29.801Z,8.5881
2023-04-07T07:53:37.758Z,8.4487
2023-04-07T07:54:45.822Z,8.1771
2023-04-07T07:55:53.974Z,8.3578
2023-04-07T07:57:01.941Z,8.4266
2023-04-07T07:58:10.037Z,8.1312
2023-04-07T07:59:18.112Z,8.1117
2023-04-07T08:00:26.139Z,8.2923
2023-04-07T08:01:34.419Z,7.6823
2023-04-07T08:02:42.336Z,7.6624
2023-04-07T08:03:50.774Z,7.9961
2023-04-07T08:04:58.588Z,8.6667
2023-04-07T08:06:06.517Z,7.7872
2023-04-07T08:07:14.563Z,7.4401
2023-04-07T08:08:23.328Z,7.9030
2023-04-07T08:09:30.679Z,7.9332
2023-04-07T08:10:38.787Z,7.6800
2023-04-07T08:11:46.937Z,7.8066
2023-04-07T08:12:54.849Z,8.3064
2023-04-07T08:14:02.986Z,8.6478
2023-04-07T08:15:11.042Z,9.2376
2023-04-07T08:16:19.341Z,8.9549
2023-04-07T08:17:27.209Z,8.3557
2023-04-07T08:18:35.286Z,8.4274
2023-04-07T08:19:43.378Z,7.8755
2023-04-07T08:20:51.441Z,8.3094
2023-04-07T08:21:59.472Z,8.5138
2023-04-07T08:23:07.579Z,8.2363
2023-04-07T08:24:15.790Z,8.7577
2023-04-07T08:25:23.683Z,8.2498
2023-04-07T08:26:31.814Z,7.8853
2023-04-07T08:27:39.893Z,7.3755
2023-04-07T08:28:48.005Z,7.3011
2023-04-07T08:29:55.957Z,7.2455
2023-04-07T08:31:04.100Z,7.2002
2023-04-07T08:32:12.264Z,7.1717
2023-04-07T08:33:20.091Z,7.0724
2023-04-07T08:34:28.254Z,7.0918
2023-04-07T08:35:36.385Z,7.3661
2023-04-07T08:36:44.368Z,6.9275
2023-04-07T08:37:52.576Z,7.2056
2023-04-07T08:39:00.451Z,7.2430
2023-04-07T08:40:08.676Z,6.7899
2023-04-07T08:41:16.702Z,7.1925
2023-04-07T08:42:24.731Z,7.5691
2023-04-07T08:43:32.899Z,7.1812
2023-04-07T08:44:40.793Z,6.7867
2023-04-07T08:45:48.953Z,6.9035
2023-04-07T08:46:57.005Z,7.5243
2023-04-07T08:48:05.321Z,7.1979
2023-04-07T08:49:13.197Z,7.1032
2023-04-07T08:50:21.247Z,7.2861
2023-04-07T08:51:29.325Z,7.2851
2023-04-07T08:52:37.501Z,7.0537
2023-04-07T08:53:45.787Z,7.7659
2023-04-07T08:54:53.506Z,7.6793
2023-04-07T08:56:01.611Z,7.3278
2023-04-07T08:57:09.825Z,7.2106
2023-04-07T08:58:17.878Z,7.0006
2023-04-07T08:59:25.832Z,6.6358
2023-04-07T09:00:33.973Z,7.1268
2023-04-07T09:01:42.272Z,6.9188
2023-04-07T09:02:50.134Z,6.9855
2023-04-07T09:03:58.138Z,7.0433
2023-04-07T09:05:06.155Z,6.7696
2023-04-07T09:06:14.420Z,7.0386
2023-04-07T09:07:22.388Z,6.5932
2023-04-07T09:08:30.409Z,6.5457
2023-04-07T09:09:38.608Z,6.3989
2023-04-07T09:10:46.615Z,6.5377
2023-04-07T09:11:54.673Z,6.5461
2023-04-07T09:13:02.688Z,6.6006
2023-04-07T09:14:10.764Z,6.4039
2023-04-07T09:15:18.939Z,6.6136
2023-04-07T09:16:26.937Z,6.4124
2023-04-07T09:17:35.175Z,6.4216
2023-04-07T09:18:43.122Z,6.2291
2023-04-07T09:19:51.214Z,6.0433
2023-04-07T09:20:59.144Z,6.3630
2023-04-07T09:22:07.409Z,6.4194
2023-04-07T09:23:15.399Z,6.2855
2023-04-07T09:24:23.459Z,6.2908
2023-04-07T09:25:31.657Z,6.1518
2023-04-07T09:26:39.568Z,5.9603
2023-04-07T09:27:47.654Z,6.1115
2023-04-07T09:28:55.774Z,6.5459
2023-04-07T09:30:03.887Z,6.2249
2023-04-07T09:31:11.859Z,6.2713
2023-04-07T09:32:19.960Z,6.4354
2023-04-07T09:33:28.112Z,6.2752
2023-04-07T09:34:36.282Z,5.8581
2023-04-07T09:35:44.157Z,6.1016
2023-04-07T09:36:52.214Z,5.9063
2023-04-07T09:38:00.363Z,6.1374
2023-04-07T09:39:08.464Z,6.5368
2023-04-07T09:40:16.467Z,6.2664
2023-04-07T09:41:24.547Z,6.0710
2023-04-07T09:42:32.656Z,5.7208
2023-04-07T09:43:40.717Z,5.6348
2023-04-07T09:44:48.690Z,5.8612
2023-04-07T09:45:56.876Z,5.7805
2023-04-07T09:47:04.806Z,5.8467
2023-04-07T09:48:12.903Z,5.5853
2023-04-07T09:49:21.021Z,5.1544
2023-04-07T09:50:29.128Z,5.6069
2023-04-07T09:51:37.215Z,5.3504
2023-04-07T09:52:45.389Z,5.2487
2023-04-07T09:53:53.309Z,5.7225
2023-04-07T09:55:01.490Z,5.5301
2023-04-07T09:56:09.458Z,5.4055
2023-04-07T09:57:17.553Z,5.3789
2023-04-07T09:58:25.603Z,5.3200
2023-04-07T09:59:33.717Z,5.0902
2023-04-07T10:00:41.785Z,5.0798
2023-04-07T10:01:49.891Z,5.2589
2023-04-07T10:02:58.358Z,5.1209
2023-04-07T10:04:05.981Z,5.4535
2023-04-07T10:05:14.061Z,4.6800
2023-04-07T10:06:22.099Z,5.2305
2023-04-07T10:07:30.254Z,5.0326
2023-04-07T10:08:38.320Z,4.5262
2023-04-07T10:09:46.429Z,5.0896
2023-04-07T10:10:54.403Z,4.3543
2023-04-07T10:12:02.585Z,4.2602
2023-04-07T10:13:10.556Z,4.5653
2023-04-07T10:14:18.645Z,4.5056
2023-04-07T10:15:26.746Z,4.7247
2023-04-07T10:16:34.806Z,4.7672
2023-04-07T10:17:42.886Z,4.6095
2023-04-07T10:18:51.060Z,4.4264
2023-04-07T10:19:59.145Z,4.2642
2023-04-07T10:21:07.070Z,4.4373
2023-04-07T10:22:15.181Z,4.1862
2023-04-07T10:23:23.224Z,4.4749
2023-04-07T10:24:31.379Z,4.2596
2023-04-07T10:25:39.442Z,4.3145
2023-04-07T10:26:47.575Z,4.3125
2023-04-07T10:27:55.439Z,4.1136
2023-04-07T10:29:03.588Z,3.9177
2023-04-07T10:30:11.602Z,4.0785
2023-04-07T10:31:19.815Z,3.8419
2023-04-07T10:32:27.929Z,4.0691
2023-04-07T10:33:35.884Z,3.8219
2023-04-07T10:34:44.008Z,4.0521
2023-04-07T10:35:52.177Z,4.0497
2023-04-07T10:37:00.227Z,3.9056
2023-04-07T10:38:08.346Z,3.9926
2023-04-07T10:39:16.275Z,4.0571
2023-04-07T10:40:24.348Z,4.0781
2023-04-07T10:41:32.494Z,3.8211
2023-04-07T10:42:40.484Z,3.7283
2023-04-07T10:43:48.682Z,3.8805
2023-04-07T10:44:56.672Z,3.6514
2023-04-07T10:46:04.738Z,4.0341
2023-04-07T10:47:12.776Z,4.0050
2023-04-07T10:48:20.879Z,4.1622
2023-04-07T10:49:29.023Z,4.2067
2023-04-07T10:50:37.077Z,4.3605
2023-04-07T10:51:45.080Z,4.1744
2023-04-07T10:52:53.125Z,3.5552
2023-04-07T10:54:01.164Z,4.0003
2023-04-07T10:55:09.403Z,3.9983
2023-04-07T10:56:17.297Z,4.4071
2023-04-07T10:57:25.456Z,4.0907
2023-04-07T10:58:33.516Z,4.2114
2023-04-07T10:59:41.538Z,4.3438
2023-04-07T11:00:49.651Z,4.2486
2023-04-07T11:01:57.889Z,4.2151
2023-04-07T11:03:05.926Z,4.5870
2023-04-07T11:04:14.114Z,4.6026
2023-04-07T11:05:22.006Z,4.5419
2023-04-07T11:06:30.146Z,4.6011
2023-04-07T11:07:38.093Z,5.0077
2023-04-07T11:08:48.373Z,4.6394
2023-04-07T11:09:59.105Z,4.5604
2023-04-07T11:11:07.274Z,4.2194
2023-04-07T11:12:15.273Z,4.4218
2023-04-07T11:13:23.346Z,4.9115
2023-04-07T11:14:31.341Z,4.7086
2023-04-07T11:15:40.909Z,4.4746
2023-04-07T11:16:47.641Z,4.7013
2023-04-07T11:17:55.718Z,4.9496
2023-04-07T11:19:03.692Z,4.6548
2023-04-07T11:20:11.760Z,4.7970
2023-04-07T11:21:19.878Z,4.8004
2023-04-07T11:22:30.303Z,4.7595
2023-04-07T11:23:35.956Z,5.2960
2023-04-07T11:24:44.019Z,4.9312
2023-04-07T11:25:52.118Z,4.6619
2023-04-07T11:27:00.165Z,4.7301
2023-04-07T11:28:08.375Z,4.6175
2023-04-07T11:29:16.275Z,4.5525
2023-04-07T11:30:24.419Z,4.9267
2023-04-07T11:31:32.565Z,4.7192
2023-04-07T11:32:40.551Z,4.9248
2023-04-07T11:33:48.786Z,4.8264
2023-04-07T11:34:56.618Z,4.5470
2023-04-07T11:36:04.881Z,4.8267
2023-04-07T11:37:12.824Z,4.8348
2023-04-07T11:38:20.892Z,4.5295
2023-04-07T11:39:29.010Z,4.8696
2023-04-07T11:40:37.163Z,5.1842
2023-04-07T11:41:45.213Z,4.6282
2023-04-07T11:42:53.212Z,5.1413
2023-04-07T11:44:01.314Z,5.4010
2023-04-07T11:45:09.397Z,5.3648
2023-04-07T11:46:17.423Z,5.6801
2023-04-07T11:47:25.469Z,5.4809
2023-04-07T11:48:33.642Z,5.6737
2023-04-07T11:49:41.665Z,5.7452
2023-04-07T11:50:49.729Z,5.2834
2023-04-07T11:51:57.882Z,5.6120
2023-04-07T11:53:05.992Z,5.7335
2023-04-07T11:54:14.050Z,5.8747
2023-04-07T11:55:22.421Z,5.8673
2023-04-07T11:56:30.183Z,5.7355
2023-04-07T11:57:38.269Z,5.4041
2023-04-07T11:58:46.305Z,5.5231
2023-04-07T11:59:54.391Z,5.9423
2023-04-07T12:01:02.448Z,5.8842
2023-04-07T12:02:10.874Z,5.6779
2023-04-07T12:03:18.749Z,5.3980
2023-04-07T12:04:26.755Z,5.2194
2023-04-07T12:05:34.734Z,5.0792
2023-04-07T12:06:42.916Z,5.4072
2023-04-07T12:07:50.918Z,4.9902
2023-04-07T12:08:58.891Z,5.5600
2023-04-07T12:10:07.030Z,5.3854
2023-04-07T12:11:15.224Z,5.2673
2023-04-07T12:12:23.182Z,5.1069
2023-04-07T12:13:31.273Z,4.9989
2023-04-07T12:14:39.276Z,5.3012
2023-04-07T12:15:47.390Z,4.3888
2023-04-07T12:16:55.527Z,4.2971
2023-04-07T12:18:03.606Z,4.7957
2023-04-07T12:19:11.789Z,4.7907
2023-04-07T12:20:19.666Z,4.7666
2023-04-07T12:21:27.784Z,4.7848
2023-04-07T12:22:35.840Z,4.3955
2023-04-07T12:23:44.023Z,4.3047
2023-04-07T12:24:52.028Z,4.1028
2023-04-07T12:25:59.994Z,3.8613
2023-04-07T12:27:08.176Z,3.7734
2023-04-07T12:28:16.202Z,3.7604
2023-04-07T12:29:24.256Z,3.4402
2023-04-07T12:30:32.408Z,3.4472
2023-04-07T12:31:40.371Z,3.8362
2023-04-07T12:32:48.547Z,3.4438
2023-04-07T12:33:56.621Z,3.1048
2023-04-07T12:35:04.665Z,3.1270
2023-04-07T12:36:12.889Z,3.0611
2023-04-07T12:37:20.852Z,2.9847
2023-04-07T12:38:28.825Z,3.1203
2023-04-07T12:39:36.989Z,3.0814
2023-04-07T12:40:45.133Z,3.0342
2023-04-07T12:41:53.182Z,3.2195
2023-04-07T12:43:01.175Z,2.9747
2023-04-07T12:44:09.298Z,2.9385
2023-04-07T12:45:17.308Z,2.4018
2023-04-07T12:46:25.523Z,2.3876
2023-04-07T12:47:33.546Z,2.4467
2023-04-07T12:48:41.760Z,2.4575
2023-04-07T12:49:50.297Z,2.3500
2023-04-07T12:50:57.686Z,1.7622
2023-04-07T12:52:05.771Z,1.9079
2023-04-07T12:53:13.859Z,1.8623
2023-04-07T12:54:21.895Z,2.1176
2023-04-07T12:55:29.925Z,2.0343
2023-04-07T12:56:38.158Z,1.8288
2023-04-07T12:57:46.119Z,2.0072
2023-04-07T12:58:54.359Z,1.6635
2023-04-07T13:00:02.202Z,1.5322
2023-04-07T13:01:10.271Z,1.5210
2023-04-07T13:02:18.489Z,1.7430
2023-04-07T13:03:26.696Z,1.8727
2023-04-07T13:04:34.636Z,2.2032
2023-04-07T13:05:42.617Z,2.0870
2023-04-07T13:06:50.629Z,2.0634
2023-04-07T13:07:58.757Z,2.1869
2023-04-07T13:09:06.725Z,2.1597
2023-04-07T13:10:15.033Z,2.1334
2023-04-07T13:11:22.957Z,2.1024
2023-04-07T13:12:31.153Z,1.8100
2023-04-07T13:13:39.136Z,1.7475
2023-04-07T13:14:59.271Z,1.8016
2023-04-07T13:16:00.163Z,1.8427
2023-04-07T13:17:08.318Z,1.8749
2023-04-07T13:18:16.180Z,1.7988
2023-04-07T13:19:24.498Z,1.6259
2023-04-07T13:20:32.391Z,1.5883
2023-04-07T13:21:46.607Z,1.5758
2023-04-07T13:23:04.509Z,1.7419
2023-04-07T13:24:06.329Z,1.7366
2023-04-07T13:25:14.373Z,1.9026
2023-04-07T13:26:22.452Z,1.6630
2023-04-07T13:27:30.641Z,1.9784
2023-04-07T13:28:38.576Z,1.5152
2023-04-07T13:29:46.653Z,1.4497
2023-04-07T13:30:54.833Z,1.2436
2023-04-07T13:32:02.758Z,0.8416
2023-04-07T13:33:10.860Z,0.9269
2023-04-07T13:34:18.896Z,0.7946
2023-04-07T13:35:26.967Z,0.9328
2023-04-07T13:36:35.052Z,0.8850
2023-04-07T13:37:43.153Z,1.0429
2023-04-07T13:38:51.272Z,1.0403
2023-04-07T13:39:59.206Z,1.0624
2023-04-07T13:41:07.311Z,1.0048
2023-04-07T13:42:15.316Z,1.1063
2023-04-07T13:43:23.425Z,1.0013
2023-04-07T13:44:31.611Z,1.2072
2023-04-07T13:45:39.502Z,1.3065
2023-04-07T13:46:47.880Z,1.0239
2023-04-07T13:47:56.858Z,1.2156
2023-04-07T13:49:03.783Z,1.1167
2023-04-07T13:50:11.947Z,1.3058
2023-04-07T13:51:19.927Z,1.3979
2023-04-07T13:52:27.966Z,1.4870
2023-04-07T13:53:36.014Z,1.5573
2023-04-07T13:54:44.208Z,1.4206
2023-04-07T13:55:52.237Z,1.4109
2023-04-07T13:57:00.170Z,1.4854
2023-04-07T13:58:08.367Z,1.2764
2023-04-07T13:59:16.354Z,1.2580
2023-04-07T14:00:24.476Z,1.3987
2023-04-07T14:01:32.576Z,1.4483
2023-04-07T14:02:40.615Z,1.4238
2023-04-07T14:03:48.981Z,1.6714
2023-04-07T14:04:56.783Z,1.6835
2023-04-07T14:06:04.874Z,1.8485
2023-04-07T14:07:12.850Z,1.6201
2023-04-07T14:08:20.849Z,1.6721
2023-04-07T14:09:29.017Z,1.6192